Time;durP1;ratioP1;P1;durP2;ratioP2;P2;SDS_P1;SDS_P2;PMS_P1;PMS_P2;Temp;Humidity;BMP_temperature;BMP_pressure;BME280_temperature;BME280_humidity;BME280_pressure;Samples;Min_cycle;Max_cycle;Signal;HPM_P1;HPM_P2
2021/11/30 00:00:10;;;;;;;10.68;4.78;;;;;;;1.16;87.90;98312.31;5094133;28;20047;-94
2021/11/30 00:02:37;;;;;;;10.25;5.68;;;;;;;1.22;87.70;98314.06;5094066;28;20036;-93
2021/11/30 00:05:06;;;;;;;7.85;4.47;;;;;;;1.28;87.87;98337.66;5094967;28;20051;-93
2021/11/30 00:07:32;;;;;;;10.23;5.13;;;;;;;1.28;87.67;98336.78;5094897;28;20052;-92
2021/11/30 00:12:58;;;;;;;9.05;5.18;;;;;;;1.72;86.44;98365.72;5115065;27;20722;-94
2021/11/30 00:15:24;;;;;;;10.20;4.82;;;;;;;1.79;85.09;98359.59;5114077;28;20044;-94
2021/11/30 00:17:50;;;;;;;6.63;4.80;;;;;;;1.78;85.68;98354.38;5114632;28;20097;-94
2021/11/30 00:20:16;;;;;;;7.25;4.40;;;;;;;1.74;84.65;98337.75;5114604;28;20044;-94
2021/11/30 00:22:42;;;;;;;6.68;4.00;;;;;;;1.86;84.00;98339.50;5115048;28;20048;-93
2021/11/30 00:25:08;;;;;;;5.88;3.75;;;;;;;2.02;85.12;98364.00;5113299;28;20511;-95
2021/11/30 00:27:35;;;;;;;8.45;4.70;;;;;;;1.95;85.03;98360.50;5112605;28;20067;-93
2021/11/30 00:30:03;;;;;;;7.82;3.38;;;;;;;1.85;85.51;98330.78;5113749;28;20097;-93
2021/11/30 00:32:29;;;;;;;4.18;2.60;;;;;;;2.30;80.08;98370.13;5115996;28;20115;-92
2021/11/30 00:34:55;;;;;;;4.07;2.22;;;;;;;2.15;81.03;98336.03;5114649;28;20074;-93
2021/11/30 00:37:21;;;;;;;6.10;2.75;;;;;;;2.15;81.63;98352.63;5114178;28;20040;-93
2021/11/30 00:39:48;;;;;;;4.18;2.70;;;;;;;2.23;82.13;98374.50;5113918;28;20040;-94
2021/11/30 00:42:14;;;;;;;4.93;2.88;;;;;;;2.10;84.14;98370.09;5114161;28;20044;-93
2021/11/30 00:44:41;;;;;;;5.35;2.65;;;;;;;1.86;84.57;98373.59;5114628;28;20054;-94
2021/11/30 00:47:18;;;;;;;5.55;3.15;;;;;;;1.87;85.83;98408.56;5115281;28;20039;-94
2021/11/30 00:49:49;;;;;;;6.03;2.42;;;;;;;1.53;86.11;98379.66;5115652;28;20555;-95
2021/11/30 00:52:16;;;;;;;3.80;2.42;;;;;;;1.47;86.26;98404.06;5115049;28;20453;-92
2021/11/30 00:54:42;;;;;;;4.15;2.30;;;;;;;1.26;87.11;98398.75;5113722;28;20081;-94
2021/11/30 00:57:08;;;;;;;3.75;2.30;;;;;;;1.10;88.28;98406.53;5115289;28;20044;-94
2021/11/30 00:59:35;;;;;;;3.60;2.40;;;;;;;1.07;88.06;98419.63;5115401;28;20044;-93
2021/11/30 01:02:02;;;;;;;3.35;2.33;;;;;;;0.86;89.21;98422.13;5113811;28;20106;-93
2021/11/30 01:04:29;;;;;;;3.97;2.47;;;;;;;0.80;90.50;98438.66;5113277;28;20052;-94
2021/11/30 01:06:55;;;;;;;5.55;2.45;;;;;;;0.93;90.88;98458.84;5114019;28;20073;-94
2021/11/30 01:09:21;;;;;;;8.40;2.85;;;;;;;0.67;91.13;98447.31;5113515;28;20050;-95
2021/11/30 01:11:47;;;;;;;5.47;3.20;;;;;;;0.53;91.91;98450.69;5114841;28;20056;-94
2021/11/30 01:14:14;;;;;;;6.28;3.53;;;;;;;0.38;93.10;98456.69;5116713;28;20048;-93
2021/11/30 01:16:46;;;;;;;5.32;2.90;;;;;;;0.25;92.61;98459.19;5116226;28;20044;-93
2021/11/30 01:19:13;;;;;;;7.10;4.32;;;;;;;0.28;94.22;98487.97;5114716;28;20043;-92
2021/11/30 01:21:42;;;;;;;8.63;4.38;;;;;;;0.31;94.67;98508.94;5114309;28;20079;-94
2021/11/30 01:24:09;;;;;;;7.50;4.20;;;;;;;0.12;94.68;98487.81;5101090;28;20055;-95
2021/11/30 01:26:37;;;;;;;6.03;3.83;;;;;;;0.10;94.49;98491.28;5101505;28;20074;-93
2021/11/30 01:29:05;;;;;;;4.57;2.83;;;;;;;-0.14;94.80;98478.84;5100921;28;20126;-94
2021/11/30 01:31:31;;;;;;;5.88;2.83;;;;;;;-0.15;95.23;98484.91;5101886;28;20068;-93
2021/11/30 01:33:57;;;;;;;4.95;2.90;;;;;;;-0.17;95.53;98481.41;5100547;28;20505;-93
2021/11/30 01:36:23;;;;;;;5.47;3.58;;;;;;;-0.27;95.45;98483.91;5100979;28;20047;-92
2021/11/30 01:38:50;;;;;;;7.00;3.30;;;;;;;-0.41;96.79;98477.69;5099801;28;20101;-94
2021/11/30 01:41:17;;;;;;;7.25;4.07;;;;;;;-0.33;97.18;98498.66;5099291;28;20044;-92
2021/11/30 01:43:44;;;;;;;7.82;4.13;;;;;;;-0.16;96.85;98538.06;5099592;28;20399;-94
2021/11/30 01:46:15;;;;;;;6.50;3.63;;;;;;;-0.31;97.17;98510.00;5098703;28;20051;-94
2021/11/30 01:51:45;;;;;;;11.07;5.38;;;;;;;-0.17;97.23;98518.88;5075569;27;20376;-94
2021/11/30 01:54:11;;;;;;;10.88;5.47;;;;;;;-0.25;96.95;98525.75;5074205;28;20048;-94
2021/11/30 01:56:36;;;;;;;10.13;5.45;;;;;;;-0.29;98.01;98531.78;5073794;28;20041;-93
2021/11/30 01:59:03;;;;;;;13.25;6.70;;;;;;;-0.26;97.75;98545.78;5073816;28;20127;-95
2021/11/30 02:01:29;;;;;;;11.60;5.55;;;;;;;-0.38;98.08;98518.63;5074566;28;20063;-95
2021/11/30 02:03:55;;;;;;;9.75;4.60;;;;;;;-0.34;98.23;98531.75;5074647;28;20045;-95
2021/11/30 02:06:21;;;;;;;8.65;4.07;;;;;;;-0.26;97.57;98548.41;5075439;28;20041;-93
2021/11/30 02:08:49;;;;;;;9.32;5.25;;;;;;;-0.34;97.28;98536.97;5075400;28;20118;-92
2021/11/30 02:11:14;;;;;;;7.72;3.72;;;;;;;-0.21;97.43;98562.38;5074546;28;20110;-94
2021/11/30 02:13:42;;;;;;;9.23;4.28;;;;;;;-0.29;97.54;98544.84;5075022;28;20486;-93
2021/11/30 02:16:09;;;;;;;7.03;3.92;;;;;;;-0.24;97.31;98564.97;5073782;28;20536;-93
2021/11/30 02:21:39;;;;;;;6.95;3.67;;;;;;;-0.48;97.01;98555.09;5176373;27;20376;-94
2021/11/30 02:24:07;;;;;;;5.80;3.78;;;;;;;-0.54;97.88;98556.72;5071960;28;20494;-94
2021/11/30 02:26:35;;;;;;;7.97;4.05;;;;;;;-0.39;97.72;98570.00;5071222;28;20053;-93
2021/11/30 02:29:03;;;;;;;6.30;3.60;;;;;;;-0.37;97.30;98581.31;5071173;28;20045;-93
2021/11/30 02:31:34;;;;;;;9.45;4.00;;;;;;;-0.54;97.65;98555.00;5072460;28;20072;-94
2021/11/30 02:34:00;;;;;;;6.47;3.75;;;;;;;-0.34;98.28;98581.38;5073074;28;20079;-94
2021/11/30 02:39:28;;;;;;;6.72;4.50;;;;;;;-0.27;97.71;98585.81;5153832;27;20360;-93
2021/11/30 02:41:57;;;;;;;10.90;4.28;;;;;;;-0.14;96.34;98567.69;5138159;27;20043;-93
2021/11/30 02:44:24;;;;;;;8.75;4.35;;;;;;;-0.01;94.89;98565.22;5137194;27;20051;-94
2021/11/30 02:46:55;;;;;;;6.82;3.50;;;;;;;0.11;94.18;98561.91;5136050;27;20039;-94
2021/11/30 02:49:26;;;;;;;7.10;3.80;;;;;;;0.30;93.65;98585.63;5136156;27;20050;-93
2021/11/30 02:51:56;;;;;;;8.20;3.45;;;;;;;0.23;94.00;98582.06;5136844;27;20043;-93
2021/11/30 02:54:23;;;;;;;6.75;3.85;;;;;;;0.38;93.58;98592.69;5136307;27;20051;-93
2021/11/30 02:56:56;;;;;;;7.32;4.22;;;;;;;0.29;93.46;98576.03;5137012;27;20047;-94
2021/11/30 02:59:23;;;;;;;6.47;3.75;;;;;;;0.45;92.82;98605.84;5136649;27;20055;-93
2021/11/30 03:01:53;;;;;;;6.45;3.42;;;;;;;0.51;91.41;98596.31;5136027;27;20040;-93
2021/11/30 03:04:22;;;;;;;8.48;3.25;;;;;;;0.53;90.71;98599.81;5138096;27;20439;-94
2021/11/30 03:06:50;;;;;;;4.82;2.78;;;;;;;0.43;91.17;98604.94;5136873;28;20377;-93
2021/11/30 03:09:17;;;;;;;5.78;2.97;;;;;;;0.38;92.40;98610.13;5127109;28;20047;-93
2021/11/30 03:11:44;;;;;;;4.82;2.83;;;;;;;0.19;92.60;98602.06;5136711;27;20043;-94
2021/11/30 03:14:12;;;;;;;5.88;3.00;;;;;;;0.02;93.50;98601.00;5137895;27;20047;-93
2021/11/30 03:16:40;;;;;;;3.83;2.60;;;;;;;0.09;93.39;98608.06;5138137;27;20039;-94
2021/11/30 03:19:07;;;;;;;6.68;3.53;;;;;;;0.11;93.11;98610.69;5137467;27;20070;-92
2021/11/30 03:21:33;;;;;;;6.05;2.78;;;;;;;0.11;93.38;98628.97;5138071;27;20378;-94
2021/11/30 03:24:00;;;;;;;4.35;2.78;;;;;;;-0.03;93.87;98620.97;5137316;27;20035;-93
2021/11/30 03:26:26;;;;;;;6.05;3.00;;;;;;;-0.04;94.16;98624.47;5137547;28;20040;-93
2021/11/30 03:28:53;;;;;;;5.15;2.80;;;;;;;-0.08;94.07;98623.53;5138304;28;20062;-94
2021/11/30 03:34:26;;;;;;;4.68;2.50;;;;;;;0.04;94.33;98656.78;5095896;27;20381;-93
2021/11/30 03:36:56;;;;;;;4.47;2.40;;;;;;;-0.29;94.64;98639.78;5095430;28;20052;-94
2021/11/30 03:39:25;;;;;;;8.77;4.18;;;;;;;-0.26;95.41;98665.09;5093485;28;20040;-93
2021/11/30 03:41:52;;;;;;;9.60;5.23;;;;;;;-0.19;97.16;98689.59;5094124;28;20041;-93
2021/11/30 03:44:19;;;;;;;8.25;4.60;;;;;;;-0.43;97.42;98657.03;5095131;28;20569;-93
2021/11/30 03:46:45;;;;;;;9.15;5.18;;;;;;;-0.51;97.26;98663.84;5094082;28;20052;-92
2021/11/30 03:49:13;;;;;;;11.48;5.03;;;;;;;-0.58;97.13;98678.56;5093374;28;20070;-94
2021/11/30 03:51:41;;;;;;;8.43;4.50;;;;;;;-0.75;97.48;98669.56;5093778;28;20135;-94
2021/11/30 03:54:08;;;;;;;9.25;4.47;;;;;;;-0.74;97.99;98682.63;5094664;28;20069;-93
2021/11/30 03:56:35;;;;;;;7.95;4.25;;;;;;;-0.87;97.79;98667.63;5095358;28;20102;-94
2021/11/30 03:59:03;;;;;;;6.40;4.15;;;;;;;-0.62;98.51;98692.41;5093123;28;20091;-93
2021/11/30 04:01:29;;;;;;;8.25;4.57;;;;;;;-0.73;97.87;98683.53;5093389;28;20074;-94
2021/11/30 04:03:57;;;;;;;8.32;4.70;;;;;;;-0.82;98.36;98679.03;5094253;28;20436;-92
2021/11/30 04:06:24;;;;;;;7.75;4.00;;;;;;;-0.86;97.71;98692.91;5094142;28;20136;-93
2021/11/30 04:08:53;;;;;;;6.95;3.60;;;;;;;-0.88;97.95;98699.81;5094043;28;20448;-93
2021/11/30 04:11:24;;;;;;;7.22;3.63;;;;;;;-1.09;98.07;98684.66;5094619;28;20473;-92
2021/11/30 04:13:50;;;;;;;6.05;3.67;;;;;;;-1.04;98.66;98701.28;5095664;28;20051;-92
2021/11/30 04:16:18;;;;;;;5.38;3.28;;;;;;;-1.12;98.41;98697.66;5093052;28;20526;-93
2021/11/30 04:18:44;;;;;;;6.30;2.95;;;;;;;-1.18;98.85;98690.59;5094093;28;20040;-93
2021/11/30 04:21:10;;;;;;;6.50;3.70;;;;;;;-1.12;98.93;98697.66;5094592;28;20497;-94
2021/11/30 04:23:36;;;;;;;6.15;3.30;;;;;;;-0.92;99.46;98724.97;5094612;28;20064;-94
2021/11/30 04:26:04;;;;;;;5.65;3.22;;;;;;;-0.96;99.58;98690.97;5095670;28;20054;-93
2021/11/30 04:28:32;;;;;;;9.55;4.20;;;;;;;-0.85;99.50;98708.59;5094777;28;20047;-94
2021/11/30 04:30:58;;;;;;;6.45;3.90;;;;;;;-0.81;98.25;98719.94;5094273;28;20052;-93
2021/11/30 04:33:24;;;;;;;7.25;3.65;;;;;;;-0.80;98.67;98728.66;5094776;28;20064;-94
2021/11/30 04:35:50;;;;;;;6.18;3.60;;;;;;;-0.79;98.63;98726.06;5092599;28;20071;-95
2021/11/30 04:38:16;;;;;;;6.38;3.42;;;;;;;-0.95;98.53;98706.66;5092468;28;20068;-95
2021/11/30 04:40:42;;;;;;;7.22;4.25;;;;;;;-0.78;99.08;98726.94;5094773;28;20051;-95
2021/11/30 04:43:09;;;;;;;5.93;3.67;;;;;;;-0.71;98.13;98700.09;5093577;28;20045;-95
2021/11/30 04:48:40;;;;;;;11.55;4.45;;;;;;;-0.64;97.32;98699.34;5131962;27;20362;-94
2021/11/30 04:51:10;;;;;;;8.88;4.55;;;;;;;-0.46;97.50;98730.97;5115347;28;20043;-92
2021/11/30 04:53:36;;;;;;;8.30;4.25;;;;;;;-0.66;97.54;98701.94;5115621;28;20107;-93
2021/11/30 04:56:02;;;;;;;7.28;4.22;;;;;;;-0.56;97.61;98733.44;5115846;28;20040;-94
2021/11/30 04:58:28;;;;;;;8.48;4.43;;;;;;;-0.67;97.56;98718.47;5115080;28;20043;-95
2021/11/30 05:00:55;;;;;;;8.38;4.13;;;;;;;-0.72;97.25;98716.63;5117563;28;20131;-95
2021/11/30 05:03:21;;;;;;;7.60;4.00;;;;;;;-0.59;97.08;98749.91;5115812;28;20059;-93
2021/11/30 05:05:49;;;;;;;10.18;4.00;;;;;;;-0.71;96.01;98723.63;5116422;28;20077;-95
2021/11/30 05:08:15;;;;;;;10.23;4.10;;;;;;;-0.80;96.10;98731.25;5115888;28;20493;-94
2021/11/30 05:10:42;;;;;;;8.43;4.57;;;;;;;-0.78;96.64;98745.22;5115067;28;20046;-96
2021/11/30 05:13:08;;;;;;;9.05;4.07;;;;;;;-0.95;97.56;98737.13;5115995;28;20047;-95
2021/11/30 05:15:34;;;;;;;9.55;4.30;;;;;;;-0.95;98.19;98737.13;5117531;28;20040;-94
2021/11/30 05:18:00;;;;;;;9.10;4.38;;;;;;;-0.96;98.41;98738.81;5116372;28;20381;-93
2021/11/30 05:20:27;;;;;;;9.60;5.22;;;;;;;-0.77;98.89;98770.50;5115747;28;20528;-93
2021/11/30 05:22:56;;;;;;;7.07;4.50;;;;;;;-0.79;99.17;98753.94;5121559;28;20396;-94
2021/11/30 05:25:25;;;;;;;9.63;5.20;;;;;;;-0.85;99.16;98754.69;5137495;27;20039;-94
2021/11/30 05:27:52;;;;;;;11.55;5.47;;;;;;;-0.91;99.02;98754.56;5137025;27;20074;-95
2021/11/30 05:30:20;;;;;;;10.77;4.60;;;;;;;-0.65;99.00;98784.66;5137075;27;20081;-93
2021/11/30 05:32:49;;;;;;;8.20;4.30;;;;;;;-0.67;99.12;98788.97;5137756;27;20040;-94
2021/11/30 05:35:16;;;;;;;10.32;5.30;;;;;;;-0.76;98.61;98762.69;5137850;27;20043;-94
2021/11/30 05:37:42;;;;;;;9.60;5.32;;;;;;;-0.65;98.10;98787.25;5136779;27;20047;-94
2021/11/30 05:40:11;;;;;;;8.57;4.95;;;;;;;-0.49;98.18;98808.44;5136746;27;20050;-94
2021/11/30 05:42:38;;;;;;;8.47;4.70;;;;;;;-0.60;96.87;98781.25;5134854;27;20044;-93
2021/11/30 05:45:06;;;;;;;8.30;4.05;;;;;;;-0.48;96.94;98810.16;5135980;28;20066;-94
2021/11/30 05:47:32;;;;;;;8.07;4.10;;;;;;;-0.71;96.86;98786.28;5133650;27;20071;-93
2021/11/30 05:49:58;;;;;;;9.23;4.78;;;;;;;-0.65;96.92;98823.81;5132941;27;20058;-94
2021/11/30 05:52:24;;;;;;;9.38;4.75;;;;;;;-0.75;96.53;98832.34;5133545;27;20397;-92
2021/11/30 05:54:52;;;;;;;11.05;5.35;;;;;;;-0.95;97.83;98825.88;5133066;27;20050;-94
2021/11/30 05:57:22;;;;;;;12.90;5.27;;;;;;;-1.14;98.33;98806.34;5132981;27;20447;-94
2021/11/30 06:00:17;;;;;;;11.20;5.80;;;;;;;-0.93;99.22;98868.50;5122224;27;20366;-94
2021/11/30 06:16:19;;;;;;;11.45;6.20;;;;;;;-1.51;99.81;98894.25;6163327;22;1400666;-94
2021/11/30 06:18:45;;;;;;;12.00;6.80;;;;;;;-1.32;100.00;98935.56;6221531;22;20021;-94
2021/11/30 06:21:24;;;;;;;16.17;6.75;;;;;;;-1.41;100.00;98926.63;6222415;22;20052;-95
2021/11/30 06:30:36;;;;;;;12.75;6.85;;;;;;;-1.49;100.00;98942.97;6225018;22;20004;-93
2021/11/30 06:33:03;;;;;;;13.98;7.22;;;;;;;-1.28;100.00;98966.09;6224248;23;20184;-93
2021/11/30 06:35:32;;;;;;;15.15;7.38;;;;;;;-1.19;100.00;98967.13;6224334;23;20012;-93
2021/11/30 06:37:59;;;;;;;12.63;7.13;;;;;;;-1.38;100.00;98939.75;6225038;22;20020;-92
2021/11/30 06:40:27;;;;;;;14.63;8.20;;;;;;;-1.13;100.00;98986.44;6224561;23;20246;-93
2021/11/30 06:43:01;;;;;;;13.70;8.18;;;;;;;-1.14;100.00;98974.22;6224277;23;20020;-95
2021/11/30 06:45:27;;;;;;;18.42;8.65;;;;;;;-1.15;100.00;98953.31;6223382;23;20012;-95
2021/11/30 06:47:53;;;;;;;15.73;7.82;;;;;;;-0.79;100.00;98978.47;6224035;23;20402;-93
2021/11/30 06:50:20;;;;;;;16.90;8.35;;;;;;;-0.58;99.40;98959.75;6224007;23;20012;-93
2021/11/30 06:52:49;;;;;;;15.50;7.25;;;;;;;-0.57;98.58;98951.06;6223432;23;20051;-94
2021/11/30 06:55:16;;;;;;;14.60;7.03;;;;;;;-0.29;97.66;98978.63;6224289;23;20036;-94
2021/11/30 06:57:42;;;;;;;15.75;7.90;;;;;;;-0.30;97.06;98974.25;6223431;23;20016;-94
2021/11/30 07:00:13;;;;;;;13.00;6.75;;;;;;;-0.40;97.33;98981.00;6223278;23;20325;-94
2021/11/30 07:02:41;;;;;;;10.90;5.78;;;;;;;-0.11;98.33;99014.66;6223272;23;20017;-95
2021/11/30 07:11:19;;;;;;;15.82;9.02;;;;;;;-0.19;98.40;99025.00;5092804;27;20866;-92
2021/11/30 07:13:47;;;;;;;21.27;8.77;;;;;;;-0.37;98.84;99008.94;5092406;28;20466;-94
2021/11/30 07:16:13;;;;;;;16.85;9.05;;;;;;;-0.36;98.80;99023.78;5092850;28;20564;-92
2021/11/30 07:18:40;;;;;;;17.80;9.70;;;;;;;-0.42;99.66;99001.88;5092468;28;20036;-94
2021/11/30 07:21:07;;;;;;;20.02;10.95;;;;;;;-0.35;99.54;99021.16;5092293;28;20040;-93
2021/11/30 07:23:33;;;;;;;24.58;12.25;;;;;;;-0.31;99.79;99033.44;5092134;28;20130;-93
2021/11/30 07:26:00;;;;;;;21.65;12.73;;;;;;;-0.18;99.92;99031.09;5092372;28;20044;-93
2021/11/30 07:28:31;;;;;;;15.73;10.18;;;;;;;-0.03;99.63;99036.63;5092001;28;20079;-93
2021/11/30 07:30:58;;;;;;;15.38;8.25;;;;;;;-0.01;98.31;99022.72;5092117;28;20032;-93
2021/11/30 07:33:24;;;;;;;14.63;7.68;;;;;;;0.17;95.54;99058.81;5092411;28;20070;-95
2021/11/30 07:35:50;;;;;;;14.25;6.65;;;;;;;0.15;95.14;99029.13;5092445;28;20044;-95
2021/11/30 07:38:17;;;;;;;11.93;6.85;;;;;;;0.16;93.78;99048.31;5092381;28;20044;-93
2021/11/30 07:40:43;;;;;;;11.35;6.65;;;;;;;0.41;94.03;99078.41;5092526;28;20070;-94
2021/11/30 07:43:09;;;;;;;13.18;6.70;;;;;;;0.32;93.45;99055.59;5092141;28;20052;-94
2021/11/30 07:45:36;;;;;;;14.23;7.53;;;;;;;0.32;93.42;99052.97;5091948;28;20067;-93
2021/11/30 07:48:02;;;;;;;12.60;6.90;;;;;;;0.36;93.37;99049.56;5091637;28;20472;-95
2021/11/30 07:50:29;;;;;;;11.05;6.15;;;;;;;0.50;93.37;99069.84;5092220;28;20450;-94
2021/11/30 07:52:54;;;;;;;12.38;6.05;;;;;;;0.53;90.90;99055.09;5092085;28;20286;-94
2021/11/30 07:55:20;;;;;;;12.25;6.80;;;;;;;0.38;91.48;99062.66;5091627;28;20131;-94
2021/11/30 07:57:46;;;;;;;12.52;6.45;;;;;;;0.64;92.46;99091.91;5092152;28;20040;-94
2021/11/30 08:00:15;;;;;;;15.52;7.63;;;;;;;0.67;90.94;99091.09;5092349;28;20047;-94
2021/11/30 08:02:43;;;;;;;16.50;7.38;;;;;;;0.67;90.60;99081.50;5092014;28;20465;-94
2021/11/30 08:05:11;;;;;;;13.60;7.13;;;;;;;0.81;91.05;99110.53;5091660;28;20131;-96
2021/11/30 08:07:39;;;;;;;16.73;6.68;;;;;;;0.93;89.26;99086.28;5091991;28;20044;-96
2021/11/30 08:10:13;;;;;;;13.20;6.70;;;;;;;1.11;88.05;99104.06;5091168;28;20059;-94
2021/11/30 08:12:40;;;;;;;11.82;6.30;;;;;;;1.33;87.88;99108.78;5092165;28;20062;-94
2021/11/30 08:15:06;;;;;;;11.07;7.03;;;;;;;1.34;89.32;99107.03;5091768;28;20044;-95
2021/11/30 08:17:33;;;;;;;14.05;7.35;;;;;;;1.30;87.51;99097.34;5090958;28;20037;-94
2021/11/30 08:20:01;;;;;;;12.68;6.65;;;;;;;1.38;87.60;99098.34;5091138;28;20490;-93
2021/11/30 08:22:27;;;;;;;27.27;14.93;;;;;;;1.57;86.80;99092.53;5077379;28;20040;-95
2021/11/30 08:24:53;;;;;;;12.27;7.38;;;;;;;1.70;86.33;99125.03;5077719;28;20044;-94
2021/11/30 08:27:20;;;;;;;26.88;14.70;;;;;;;1.62;87.22;99113.56;5077993;28;20087;-94
2021/11/30 08:29:49;;;;;;;14.63;7.72;;;;;;;1.59;86.91;99118.75;5077620;28;20098;-94
2021/11/30 08:32:16;;;;;;;20.52;9.02;;;;;;;1.70;86.95;99148.63;5077717;28;20049;-93
2021/11/30 08:34:42;;;;;;;17.52;8.55;;;;;;;1.48;88.00;99122.97;5077164;28;20067;-93
2021/11/30 08:37:11;;;;;;;16.92;8.18;;;;;;;1.53;86.54;99122.16;5077318;28;20051;-95
2021/11/30 08:39:38;;;;;;;16.95;8.13;;;;;;;1.64;87.26;99117.09;5077451;28;20040;-93
2021/11/30 08:42:09;;;;;;;13.68;7.47;;;;;;;1.96;84.94;99114.03;5076816;28;20511;-94
2021/11/30 08:44:35;;;;;;;14.82;7.75;;;;;;;2.34;82.69;99152.97;5077275;28;20505;-94
2021/11/30 08:47:02;;;;;;;14.27;8.35;;;;;;;2.17;83.16;99122.16;5077155;28;20044;-93
2021/11/30 08:49:28;;;;;;;53.40;20.10;;;;;;;2.39;83.67;99128.53;5077448;28;20109;-94
2021/11/30 08:51:56;;;;;;;14.73;7.97;;;;;;;2.45;82.56;99122.47;5076946;28;20048;-94
2021/11/30 08:54:27;;;;;;;21.33;9.77;;;;;;;2.71;81.92;99153.38;5077144;28;20367;-93
2021/11/30 08:56:54;;;;;;;21.25;9.43;;;;;;;2.66;82.10;99120.06;5077301;28;20096;-95
2021/11/30 08:59:20;;;;;;;16.52;8.35;;;;;;;2.96;81.48;99144.88;5078847;28;20037;-94
2021/11/30 09:01:47;;;;;;;20.38;10.13;;;;;;;3.22;80.39;99167.88;5079423;28;20121;-95
2021/11/30 09:04:13;;;;;;;18.95;8.90;;;;;;;3.15;79.65;99143.31;5079166;28;20161;-95
2021/11/30 09:06:40;;;;;;;12.60;6.60;;;;;;;3.29;78.09;99136.41;5076676;28;20043;-94
2021/11/30 09:09:07;;;;;;;29.20;14.05;;;;;;;3.35;78.90;99143.47;5077506;28;20101;-94
2021/11/30 09:11:36;;;;;;;18.85;10.75;;;;;;;3.34;78.69;99128.56;5078782;28;20072;-93
2021/11/30 09:14:04;;;;;;;17.20;8.88;;;;;;;3.43;79.15;99140.91;5079872;28;20037;-95
2021/11/30 09:16:31;;;;;;;18.33;9.40;;;;;;;3.44;78.21;99137.41;5078932;28;20076;-93
2021/11/30 09:18:59;;;;;;;18.45;8.45;;;;;;;3.49;79.32;99143.56;5077932;28;20045;-94
2021/11/30 09:21:26;;;;;;;15.48;9.10;;;;;;;3.62;79.10;99157.69;5078020;28;20052;-94
2021/11/30 09:23:53;;;;;;;15.10;8.32;;;;;;;3.60;77.87;99141.91;5080663;28;20509;-94
2021/11/30 09:26:19;;;;;;;22.08;11.05;;;;;;;3.74;77.88;99146.38;5076788;28;20517;-95
2021/11/30 09:28:47;;;;;;;18.42;8.70;;;;;;;3.93;75.75;99136.84;5076971;28;20049;-94
2021/11/30 09:31:14;;;;;;;14.45;7.80;;;;;;;4.13;75.99;99148.34;5076203;28;20045;-94
2021/11/30 09:33:40;;;;;;;32.67;13.95;;;;;;;3.94;76.87;99146.50;5075998;28;20037;-95
2021/11/30 09:36:07;;;;;;;14.48;7.93;;;;;;;3.91;77.21;99139.47;5076353;28;20090;-94
2021/11/30 09:38:34;;;;;;;15.27;8.70;;;;;;;4.05;77.49;99143.03;5075837;28;20538;-94
2021/11/30 09:41:02;;;;;;;13.82;8.20;;;;;;;3.72;76.10;99141.09;5076313;28;20463;-94
2021/11/30 09:43:29;;;;;;;22.60;11.40;;;;;;;3.88;77.82;99140.34;5076171;28;20044;-95
2021/11/30 09:45:57;;;;;;;19.20;9.68;;;;;;;4.02;77.70;99134.25;5075957;28;20051;-94
2021/11/30 09:48:24;;;;;;;15.07;7.93;;;;;;;4.25;75.36;99150.13;5075847;28;20049;-94
2021/11/30 09:50:52;;;;;;;10.65;6.57;;;;;;;4.30;74.46;99130.88;5077775;28;20040;-94
2021/11/30 09:53:19;;;;;;;11.18;6.88;;;;;;;4.37;73.63;99123.88;5077467;28;20052;-95
2021/11/30 09:55:47;;;;;;;13.75;8.43;;;;;;;4.46;73.93;99130.91;5077635;28;20051;-94
2021/11/30 09:58:14;;;;;;;13.45;8.23;;;;;;;4.65;72.18;99161.72;5076382;28;20049;-94
2021/11/30 10:00:41;;;;;;;16.80;8.27;;;;;;;4.55;72.90;99144.09;5076666;28;20131;-95
2021/11/30 10:03:09;;;;;;;12.60;7.82;;;;;;;4.27;73.50;99128.25;5076048;28;20067;-93
2021/11/30 10:05:36;;;;;;;13.27;7.70;;;;;;;4.43;74.17;99147.59;5075576;28;20052;-94
2021/11/30 10:08:03;;;;;;;14.65;7.88;;;;;;;4.48;74.08;99131.81;5076112;28;20044;-94
2021/11/30 10:10:34;;;;;;;14.13;7.78;;;;;;;4.58;73.18;99128.34;5075608;28;20135;-93
2021/11/30 10:13:11;;;;;;;15.85;8.93;;;;;;;4.71;73.36;99137.16;5074977;28;20051;-93
2021/11/30 10:15:57;;;;;;;18.42;9.30;;;;;;;4.88;73.46;99147.69;5055367;28;20501;-94
2021/11/30 10:18:26;;;;;;;16.38;8.07;;;;;;;4.50;72.83;99137.97;5060640;28;20064;-94
2021/11/30 10:20:54;;;;;;;15.63;8.55;;;;;;;4.67;72.31;99140.66;5074809;28;20041;-93
2021/11/30 10:23:22;;;;;;;17.03;7.97;;;;;;;4.76;71.70;99132.75;5075531;28;20132;-94
2021/11/30 10:25:50;;;;;;;15.15;9.73;;;;;;;4.79;72.18;99132.75;5075449;28;20040;-94
2021/11/30 10:28:18;;;;;;;23.80;9.68;;;;;;;4.82;73.68;99131.91;5075192;28;20449;-94
2021/11/30 10:30:46;;;;;;;23.35;10.40;;;;;;;4.70;73.30;99111.66;5075862;28;20044;-96
2021/11/30 10:33:16;;;;;;;15.43;8.03;;;;;;;4.76;72.41;99137.16;5075088;28;20044;-94
2021/11/30 10:35:44;;;;;;;16.05;8.63;;;;;;;4.69;72.77;99121.34;5076063;28;20059;-95
2021/11/30 10:38:11;;;;;;;14.90;9.32;;;;;;;4.77;71.14;99138.91;5075272;28;20044;-94
2021/11/30 10:40:39;;;;;;;16.50;9.45;;;;;;;4.74;73.17;99151.19;5075071;28;20047;-94
2021/11/30 10:43:07;;;;;;;15.65;8.43;;;;;;;4.55;72.85;99149.38;5074596;28;20626;-93
2021/11/30 10:45:36;;;;;;;18.03;9.83;;;;;;;4.41;74.75;99125.66;5062889;28;20048;-94
2021/11/30 10:48:06;;;;;;;22.73;10.20;;;;;;;4.58;75.14;99144.13;5074652;28;20044;-94
2021/11/30 10:50:36;;;;;;;15.80;8.80;;;;;;;4.60;74.35;99158.19;5074940;28;20431;-93
2021/11/30 10:53:13;;;;;;;13.10;7.90;;;;;;;4.44;74.45;99123.00;5054958;28;20045;-94
2021/11/30 10:55:39;;;;;;;14.95;8.27;;;;;;;4.51;74.44;99126.53;5055793;28;20052;-94
2021/11/30 10:58:05;;;;;;;13.15;8.50;;;;;;;4.59;73.86;99139.75;5054827;28;20048;-93
2021/11/30 11:00:33;;;;;;;14.68;7.50;;;;;;;4.65;74.74;99145.91;5054698;28;20060;-93
2021/11/30 11:09:04;;;;;;;14.27;7.72;;;;;;;4.82;72.69;99137.19;5106311;27;20368;-94
2021/11/30 11:11:33;;;;;;;13.73;7.28;;;;;;;4.84;72.09;99141.56;5071640;28;20132;-93
2021/11/30 11:14:01;;;;;;;12.20;6.85;;;;;;;4.77;71.82;99113.47;5072084;28;20055;-94
2021/11/30 11:16:30;;;;;;;16.75;7.90;;;;;;;4.81;72.60;99106.41;5071599;28;20049;-92
2021/11/30 11:18:58;;;;;;;16.15;8.30;;;;;;;4.81;73.01;99099.38;5072182;28;20448;-93
2021/11/30 11:21:29;;;;;;;15.15;8.02;;;;;;;4.85;71.97;99101.16;5072273;28;20044;-93
2021/11/30 11:24:09;;;;;;;12.70;8.48;;;;;;;4.94;71.16;99124.00;5051895;28;20051;-94
2021/11/30 11:26:37;;;;;;;15.90;8.52;;;;;;;4.91;73.25;99110.84;5051906;28;20407;-93
2021/11/30 11:29:08;;;;;;;15.05;8.63;;;;;;;4.87;73.68;99095.88;5052291;28;20080;-94
2021/11/30 11:31:37;;;;;;;16.75;8.82;;;;;;;5.02;74.31;99095.03;5051703;28;20071;-94
2021/11/30 11:34:05;;;;;;;12.45;8.07;;;;;;;5.01;72.76;99080.06;5061841;28;20495;-95
2021/11/30 11:36:32;;;;;;;20.57;10.53;;;;;;;4.99;73.15;99077.47;5071520;28;20114;-94
2021/11/30 11:38:59;;;;;;;19.55;8.98;;;;;;;5.22;71.89;99108.19;5071352;28;20123;-94
2021/11/30 11:41:31;;;;;;;20.20;9.45;;;;;;;5.13;71.88;99075.69;5071798;28;20040;-95
2021/11/30 11:44:00;;;;;;;17.10;8.63;;;;;;;5.05;70.01;99059.03;5071865;28;20045;-96
2021/11/30 11:46:32;;;;;;;16.17;8.23;;;;;;;5.10;70.95;99075.69;5072033;28;20099;-94
2021/11/30 11:49:02;;;;;;;11.60;7.13;;;;;;;5.07;69.73;99065.13;5072066;28;20061;-95
2021/11/30 11:51:35;;;;;;;14.40;7.50;;;;;;;5.14;71.07;99060.78;5071624;28;20047;-92
2021/11/30 11:54:02;;;;;;;13.85;6.70;;;;;;;5.18;67.94;99072.16;5071619;28;20072;-93
2021/11/30 11:56:31;;;;;;;12.93;8.30;;;;;;;5.02;67.93;99052.84;5072295;28;20079;-93
2021/11/30 11:59:11;;;;;;;13.98;7.50;;;;;;;5.04;70.22;99048.47;5071401;28;20052;-94
2021/11/30 12:01:37;;;;;;;;;;;;;;;5.30;69.80;99080.97;5072197;28;20386;-93
2021/11/30 12:04:05;;;;;;;13.45;7.13;;;;;;;5.22;70.03;99060.75;5071405;28;19964;-94
2021/11/30 12:06:32;;;;;;;13.55;6.88;;;;;;;5.22;68.74;99058.13;5071322;28;20039;-94
2021/11/30 12:09:19;;;;;;;14.45;8.00;;;;;;;5.23;68.89;99062.53;5071163;28;20052;-93
2021/11/30 12:11:51;;;;;;;12.70;7.97;;;;;;;5.23;68.48;99044.06;5069975;28;20045;-93
2021/11/30 12:14:29;;;;;;;14.20;8.10;;;;;;;5.27;67.87;99049.34;5071420;28;20148;-94
2021/11/30 12:17:11;;;;;;;21.95;8.68;;;;;;;5.37;69.55;99063.38;5071041;28;20045;-93
2021/11/30 12:19:46;;;;;;;14.65;8.10;;;;;;;5.27;69.87;99044.06;5061667;28;20137;-94
2021/11/30 12:22:34;;;;;;;15.57;8.40;;;;;;;5.24;69.69;99035.25;5061315;28;20145;-94
2021/11/30 12:25:00;;;;;;;19.27;11.77;;;;;;;5.41;68.67;99058.97;5065816;28;20037;-93
2021/11/30 12:27:42;;;;;;;20.30;10.25;;;;;;;5.57;68.79;99060.69;5065076;28;20045;-93